sensor_id;sensor_type;location;lat;lon;timestamp;temperature;humidity
52919;DHT22;38793;52.690;6.812;2023-10-13T00:01:23;16.60;99.90
52919;DHT22;38793;52.690;6.812;2023-10-13T00:03:49;16.60;99.90
52919;DHT22;38793;52.690;6.812;2023-10-13T00:06:16;16.60;99.90
52919;DHT22;38793;52.690;6.812;2023-10-13T00:08:44;16.60;99.90
52919;DHT22;38793;52.690;6.812;2023-10-13T00:11:13;16.60;99.90
52919;DHT22;38793;52.690;6.812;2023-10-13T00:13:39;16.60;99.90
52919;DHT22;38793;52.690;6.812;2023-10-13T00:16:09;16.60;99.90
52919;DHT22;38793;52.690;6.812;2023-10-13T00:18:41;16.60;99.90
52919;DHT22;38793;52.690;6.812;2023-10-13T00:21:10;16.60;99.90
52919;DHT22;38793;52.690;6.812;2023-10-13T00:23:46;16.60;99.90
52919;DHT22;38793;52.690;6.812;2023-10-13T00:26:24;16.60;99.90
52919;DHT22;38793;52.690;6.812;2023-10-13T00:28:57;16.70;99.90
52919;DHT22;38793;52.690;6.812;2023-10-13T00:31:28;16.70;99.90
52919;DHT22;38793;52.690;6.812;2023-10-13T00:34:02;16.70;99.90
52919;DHT22;38793;52.690;6.812;2023-10-13T00:36:51;16.70;99.90
52919;DHT22;38793;52.690;6.812;2023-10-13T00:39:36;16.70;99.90
52919;DHT22;38793;52.690;6.812;2023-10-13T00:42:05;16.70;99.90
52919;DHT22;38793;52.690;6.812;2023-10-13T00:44:43;16.70;99.90
52919;DHT22;38793;52.690;6.812;2023-10-13T00:47:18;16.70;99.90
52919;DHT22;38793;52.690;6.812;2023-10-13T00:50:19;16.70;99.90
52919;DHT22;38793;52.690;6.812;2023-10-13T00:52:47;16.70;99.90
52919;DHT22;38793;52.690;6.812;2023-10-13T00:55:18;16.70;99.90
52919;DHT22;38793;52.690;6.812;2023-10-13T00:57:51;16.70;99.90
52919;DHT22;38793;52.690;6.812;2023-10-13T01:00:19;16.70;99.90
52919;DHT22;38793;52.690;6.812;2023-10-13T01:02:47;16.70;99.90
52919;DHT22;38793;52.690;6.812;2023-10-13T01:05:25;16.70;99.90
52919;DHT22;38793;52.690;6.812;2023-10-13T01:07:51;16.70;99.90
52919;DHT22;38793;52.690;6.812;2023-10-13T01:10:23;16.70;99.90
52919;DHT22;38793;52.690;6.812;2023-10-13T01:12:58;16.70;99.90
52919;DHT22;38793;52.690;6.812;2023-10-13T01:15:27;16.70;99.90
52919;DHT22;38793;52.690;6.812;2023-10-13T01:18:06;16.70;99.90
52919;DHT22;38793;52.690;6.812;2023-10-13T01:20:37;16.70;99.90
52919;DHT22;38793;52.690;6.812;2023-10-13T01:23:12;16.70;99.90
52919;DHT22;38793;52.690;6.812;2023-10-13T01:25:44;16.70;99.90
52919;DHT22;38793;52.690;6.812;2023-10-13T01:28:11;16.70;99.90
52919;DHT22;38793;52.690;6.812;2023-10-13T01:30:42;16.70;99.90
52919;DHT22;38793;52.690;6.812;2023-10-13T01:33:08;16.70;99.90
52919;DHT22;38793;52.690;6.812;2023-10-13T01:35:37;16.70;99.90
52919;DHT22;38793;52.690;6.812;2023-10-13T01:38:15;16.70;99.90
52919;DHT22;38793;52.690;6.812;2023-10-13T01:40:41;16.70;99.90
52919;DHT22;38793;52.690;6.812;2023-10-13T01:43:08;16.70;99.90
52919;DHT22;38793;52.690;6.812;2023-10-13T01:45:37;16.70;99.90
52919;DHT22;38793;52.690;6.812;2023-10-13T01:48:12;16.70;99.90
52919;DHT22;38793;52.690;6.812;2023-10-13T01:50:41;16.70;99.90
52919;DHT22;38793;52.690;6.812;2023-10-13T01:53:07;16.70;99.90
52919;DHT22;38793;52.690;6.812;2023-10-13T01:55:40;16.70;99.90
52919;DHT22;38793;52.690;6.812;2023-10-13T01:58:10;16.70;99.90
52919;DHT22;38793;52.690;6.812;2023-10-13T02:00:41;16.70;99.90
52919;DHT22;38793;52.690;6.812;2023-10-13T02:03:11;16.70;99.90
52919;DHT22;38793;52.690;6.812;2023-10-13T02:05:47;16.70;99.90
52919;DHT22;38793;52.690;6.812;2023-10-13T02:08:17;16.70;99.90
52919;DHT22;38793;52.690;6.812;2023-10-13T02:10:48;16.70;99.90
52919;DHT22;38793;52.690;6.812;2023-10-13T02:13:15;16.60;99.90
52919;DHT22;38793;52.690;6.812;2023-10-13T02:15:45;16.70;99.90
52919;DHT22;38793;52.690;6.812;2023-10-13T02:18:14;16.70;99.90
52919;DHT22;38793;52.690;6.812;2023-10-13T02:20:48;16.70;99.90
52919;DHT22;38793;52.690;6.812;2023-10-13T02:23:24;16.70;99.90
52919;DHT22;38793;52.690;6.812;2023-10-13T02:26:02;16.70;99.90
52919;DHT22;38793;52.690;6.812;2023-10-13T02:28:39;16.60;99.90
52919;DHT22;38793;52.690;6.812;2023-10-13T02:31:04;16.60;99.90
52919;DHT22;38793;52.690;6.812;2023-10-13T02:33:32;16.70;99.90
52919;DHT22;38793;52.690;6.812;2023-10-13T02:36:04;16.60;99.90
52919;DHT22;38793;52.690;6.812;2023-10-13T02:38:33;16.70;99.90
52919;DHT22;38793;52.690;6.812;2023-10-13T02:41:11;16.70;99.90
52919;DHT22;38793;52.690;6.812;2023-10-13T02:43:37;16.70;99.90
52919;DHT22;38793;52.690;6.812;2023-10-13T02:46:04;16.70;99.90
52919;DHT22;38793;52.690;6.812;2023-10-13T02:48:30;16.70;99.90
52919;DHT22;38793;52.690;6.812;2023-10-13T02:51:05;16.70;99.90
52919;DHT22;38793;52.690;6.812;2023-10-13T02:53:41;16.70;99.90
52919;DHT22;38793;52.690;6.812;2023-10-13T02:56:07;16.70;99.90
52919;DHT22;38793;52.690;6.812;2023-10-13T02:58:33;16.70;99.90
52919;DHT22;38793;52.690;6.812;2023-10-13T03:01:08;16.70;99.90
52919;DHT22;38793;52.690;6.812;2023-10-13T03:03:48;16.70;99.90
52919;DHT22;38793;52.690;6.812;2023-10-13T03:06:20;16.70;99.90
52919;DHT22;38793;52.690;6.812;2023-10-13T03:08:58;16.70;99.90
52919;DHT22;38793;52.690;6.812;2023-10-13T03:11:39;16.70;99.90
52919;DHT22;38793;52.690;6.812;2023-10-13T03:14:13;16.70;99.90
52919;DHT22;38793;52.690;6.812;2023-10-13T03:16:53;16.70;99.90
52919;DHT22;38793;52.690;6.812;2023-10-13T03:19:19;16.70;99.90
52919;DHT22;38793;52.690;6.812;2023-10-13T03:21:46;16.70;99.90
52919;DHT22;38793;52.690;6.812;2023-10-13T03:24:21;16.70;99.90
52919;DHT22;38793;52.690;6.812;2023-10-13T03:27:02;16.70;99.90
52919;DHT22;38793;52.690;6.812;2023-10-13T03:29:38;16.70;99.90
52919;DHT22;38793;52.690;6.812;2023-10-13T03:32:10;16.70;99.90
52919;DHT22;38793;52.690;6.812;2023-10-13T03:34:44;16.70;99.90
52919;DHT22;38793;52.690;6.812;2023-10-13T03:37:20;16.70;99.90
52919;DHT22;38793;52.690;6.812;2023-10-13T03:40:03;16.70;99.90
52919;DHT22;38793;52.690;6.812;2023-10-13T03:42:32;16.70;99.90
52919;DHT22;38793;52.690;6.812;2023-10-13T03:44:58;16.70;99.90
52919;DHT22;38793;52.690;6.812;2023-10-13T03:47:23;16.70;99.90
52919;DHT22;38793;52.690;6.812;2023-10-13T03:49:57;16.70;99.90
52919;DHT22;38793;52.690;6.812;2023-10-13T03:52:41;16.70;99.90
52919;DHT22;38793;52.690;6.812;2023-10-13T03:55:07;16.70;99.90
52919;DHT22;38793;52.690;6.812;2023-10-13T03:57:33;16.70;99.90
52919;DHT22;38793;52.690;6.812;2023-10-13T03:59:59;16.70;99.90
52919;DHT22;38793;52.690;6.812;2023-10-13T04:02:33;16.70;99.90
52919;DHT22;38793;52.690;6.812;2023-10-13T04:04:59;16.70;99.90
52919;DHT22;38793;52.690;6.812;2023-10-13T04:07:33;16.70;99.90
52919;DHT22;38793;52.690;6.812;2023-10-13T04:10:07;16.70;99.90
52919;DHT22;38793;52.690;6.812;2023-10-13T04:12:58;16.70;99.90
52919;DHT22;38793;52.690;6.812;2023-10-13T04:15:43;16.70;99.90
52919;DHT22;38793;52.690;6.812;2023-10-13T04:18:29;16.60;99.90
52919;DHT22;38793;52.690;6.812;2023-10-13T04:21:16;16.60;99.90
52919;DHT22;38793;52.690;6.812;2023-10-13T04:24:12;16.60;99.90
52919;DHT22;38793;52.690;6.812;2023-10-13T04:26:51;16.60;99.90
52919;DHT22;38793;52.690;6.812;2023-10-13T04:29:35;16.60;99.90
52919;DHT22;38793;52.690;6.812;2023-10-13T04:32:13;16.60;99.90
52919;DHT22;38793;52.690;6.812;2023-10-13T04:34:41;16.60;99.90
52919;DHT22;38793;52.690;6.812;2023-10-13T04:37:12;16.60;99.90
52919;DHT22;38793;52.690;6.812;2023-10-13T04:40:07;16.60;99.90
52919;DHT22;38793;52.690;6.812;2023-10-13T04:42:36;16.60;99.90
52919;DHT22;38793;52.690;6.812;2023-10-13T04:45:18;16.60;99.90
52919;DHT22;38793;52.690;6.812;2023-10-13T04:48:04;16.60;99.90
52919;DHT22;38793;52.690;6.812;2023-10-13T04:50:40;16.60;99.90
52919;DHT22;38793;52.690;6.812;2023-10-13T04:53:16;16.60;99.90
52919;DHT22;38793;52.690;6.812;2023-10-13T04:56:20;16.60;99.90
52919;DHT22;38793;52.690;6.812;2023-10-13T04:59:04;16.60;99.90
52919;DHT22;38793;52.690;6.812;2023-10-13T05:02:01;16.50;99.90
52919;DHT22;38793;52.690;6.812;2023-10-13T05:04:46;16.60;99.90
52919;DHT22;38793;52.690;6.812;2023-10-13T05:07:30;16.50;99.90
52919;DHT22;38793;52.690;6.812;2023-10-13T05:10:14;16.50;99.90
52919;DHT22;38793;52.690;6.812;2023-10-13T05:12:59;16.50;99.90
52919;DHT22;38793;52.690;6.812;2023-10-13T05:15:46;16.50;99.90
52919;DHT22;38793;52.690;6.812;2023-10-13T05:18:30;16.50;99.90
52919;DHT22;38793;52.690;6.812;2023-10-13T05:21:15;16.50;99.90
52919;DHT22;38793;52.690;6.812;2023-10-13T05:23:59;16.50;99.90
52919;DHT22;38793;52.690;6.812;2023-10-13T05:26:43;16.50;99.90
52919;DHT22;38793;52.690;6.812;2023-10-13T05:29:28;16.50;99.90
52919;DHT22;38793;52.690;6.812;2023-10-13T05:32:12;16.50;99.90
52919;DHT22;38793;52.690;6.812;2023-10-13T05:34:56;16.50;99.90
52919;DHT22;38793;52.690;6.812;2023-10-13T05:37:41;16.50;99.90
52919;DHT22;38793;52.690;6.812;2023-10-13T05:40:25;16.50;99.90
52919;DHT22;38793;52.690;6.812;2023-10-13T05:43:09;16.50;99.90
52919;DHT22;38793;52.690;6.812;2023-10-13T05:46:00;16.50;99.90
52919;DHT22;38793;52.690;6.812;2023-10-13T05:48:44;16.50;99.90
52919;DHT22;38793;52.690;6.812;2023-10-13T05:51:31;16.50;99.90
52919;DHT22;38793;52.690;6.812;2023-10-13T05:54:13;16.50;99.90
52919;DHT22;38793;52.690;6.812;2023-10-13T05:56:48;16.50;99.90
52919;DHT22;38793;52.690;6.812;2023-10-13T05:59:34;16.50;99.90
52919;DHT22;38793;52.690;6.812;2023-10-13T06:02:19;16.50;99.90
52919;DHT22;38793;52.690;6.812;2023-10-13T06:05:05;16.50;99.90
52919;DHT22;38793;52.690;6.812;2023-10-13T06:07:51;16.50;99.90
52919;DHT22;38793;52.690;6.812;2023-10-13T06:10:35;16.50;99.90
52919;DHT22;38793;52.690;6.812;2023-10-13T06:13:20;16.50;99.90
52919;DHT22;38793;52.690;6.812;2023-10-13T06:16:11;16.50;99.90
52919;DHT22;38793;52.690;6.812;2023-10-13T06:18:55;16.50;99.90
52919;DHT22;38793;52.690;6.812;2023-10-13T06:21:40;16.50;99.90
52919;DHT22;38793;52.690;6.812;2023-10-13T06:24:24;16.50;99.90
52919;DHT22;38793;52.690;6.812;2023-10-13T06:27:08;16.40;99.90
52919;DHT22;38793;52.690;6.812;2023-10-13T06:29:53;16.40;99.90
52919;DHT22;38793;52.690;6.812;2023-10-13T06:32:22;16.40;99.90
52919;DHT22;38793;52.690;6.812;2023-10-13T06:34:58;16.40;99.90
52919;DHT22;38793;52.690;6.812;2023-10-13T06:37:26;16.40;99.90
52919;DHT22;38793;52.690;6.812;2023-10-13T06:40:03;16.40;99.90
52919;DHT22;38793;52.690;6.812;2023-10-13T06:42:48;16.50;99.90
52919;DHT22;38793;52.690;6.812;2023-10-13T06:45:14;16.50;99.90
52919;DHT22;38793;52.690;6.812;2023-10-13T06:47:42;16.50;99.90
52919;DHT22;38793;52.690;6.812;2023-10-13T06:50:12;16.60;99.90
52919;DHT22;38793;52.690;6.812;2023-10-13T06:52:45;16.70;99.90
52919;DHT22;38793;52.690;6.812;2023-10-13T06:55:15;16.70;99.90
52919;DHT22;38793;52.690;6.812;2023-10-13T06:57:54;16.70;99.90
52919;DHT22;38793;52.690;6.812;2023-10-13T07:00:25;16.80;99.90
52919;DHT22;38793;52.690;6.812;2023-10-13T07:03:01;16.80;99.90
52919;DHT22;38793;52.690;6.812;2023-10-13T07:05:39;16.90;99.90
52919;DHT22;38793;52.690;6.812;2023-10-13T07:08:07;16.90;99.90
52919;DHT22;38793;52.690;6.812;2023-10-13T07:10:34;17.00;99.90
52919;DHT22;38793;52.690;6.812;2023-10-13T07:13:13;17.00;99.90
52919;DHT22;38793;52.690;6.812;2023-10-13T07:15:40;17.00;99.90
52919;DHT22;38793;52.690;6.812;2023-10-13T07:18:12;17.10;99.90
52919;DHT22;38793;52.690;6.812;2023-10-13T07:20:39;17.10;99.90
52919;DHT22;38793;52.690;6.812;2023-10-13T07:23:12;17.10;99.90
52919;DHT22;38793;52.690;6.812;2023-10-13T07:25:52;17.20;99.90
52919;DHT22;38793;52.690;6.812;2023-10-13T07:28:20;17.20;99.90
52919;DHT22;38793;52.690;6.812;2023-10-13T07:30:46;17.20;99.90
52919;DHT22;38793;52.690;6.812;2023-10-13T07:33:21;17.20;99.90
52919;DHT22;38793;52.690;6.812;2023-10-13T07:35:47;17.20;99.90
52919;DHT22;38793;52.690;6.812;2023-10-13T07:38:18;17.20;99.90
52919;DHT22;38793;52.690;6.812;2023-10-13T07:40:46;17.20;99.90
52919;DHT22;38793;52.690;6.812;2023-10-13T07:43:19;17.20;99.90
52919;DHT22;38793;52.690;6.812;2023-10-13T07:45:47;17.30;99.90
52919;DHT22;38793;52.690;6.812;2023-10-13T07:48:18;17.30;99.90
52919;DHT22;38793;52.690;6.812;2023-10-13T07:50:46;17.30;99.90
52919;DHT22;38793;52.690;6.812;2023-10-13T07:53:12;17.30;99.90
52919;DHT22;38793;52.690;6.812;2023-10-13T07:55:50;17.30;99.90
52919;DHT22;38793;52.690;6.812;2023-10-13T07:58:21;17.30;99.90
52919;DHT22;38793;52.690;6.812;2023-10-13T08:00:50;17.30;99.90
52919;DHT22;38793;52.690;6.812;2023-10-13T08:03:37;17.30;99.90
52919;DHT22;38793;52.690;6.812;2023-10-13T08:06:17;17.30;99.90
52919;DHT22;38793;52.690;6.812;2023-10-13T08:08:43;17.30;99.90
52919;DHT22;38793;52.690;6.812;2023-10-13T08:11:13;17.30;99.90
52919;DHT22;38793;52.690;6.812;2023-10-13T08:14:01;17.30;99.90
52919;DHT22;38793;52.690;6.812;2023-10-13T08:16:47;17.30;99.90
52919;DHT22;38793;52.690;6.812;2023-10-13T08:19:27;17.30;99.90
52919;DHT22;38793;52.690;6.812;2023-10-13T08:21:58;17.30;99.90
52919;DHT22;38793;52.690;6.812;2023-10-13T08:24:28;17.30;99.90
52919;DHT22;38793;52.690;6.812;2023-10-13T08:27:06;17.30;99.90
52919;DHT22;38793;52.690;6.812;2023-10-13T08:29:51;17.40;99.90
52919;DHT22;38793;52.690;6.812;2023-10-13T08:35:02;17.50;99.90
52919;DHT22;38793;52.690;6.812;2023-10-13T08:37:31;17.60;99.90
52919;DHT22;38793;52.690;6.812;2023-10-13T08:40:13;17.60;99.90
52919;DHT22;38793;52.690;6.812;2023-10-13T08:43:17;17.70;99.90
52919;DHT22;38793;52.690;6.812;2023-10-13T08:45:43;17.70;99.90
52919;DHT22;38793;52.690;6.812;2023-10-13T08:48:12;17.80;99.90
52919;DHT22;38793;52.690;6.812;2023-10-13T08:50:46;17.80;99.90
52919;DHT22;38793;52.690;6.812;2023-10-13T08:53:17;17.90;99.90
52919;DHT22;38793;52.690;6.812;2023-10-13T08:58:28;18.00;99.90
52919;DHT22;38793;52.690;6.812;2023-10-13T09:01:14;18.10;99.90
52919;DHT22;38793;52.690;6.812;2023-10-13T09:04:03;18.20;99.90
52919;DHT22;38793;52.690;6.812;2023-10-13T09:07:00;18.20;99.90
52919;DHT22;38793;52.690;6.812;2023-10-13T09:12:24;18.40;99.90
52919;DHT22;38793;52.690;6.812;2023-10-13T09:15:04;18.50;99.90
52919;DHT22;38793;52.690;6.812;2023-10-13T09:17:50;18.50;99.90
52919;DHT22;38793;52.690;6.812;2023-10-13T09:20:17;18.60;99.90
52919;DHT22;38793;52.690;6.812;2023-10-13T09:22:56;18.70;99.90
52919;DHT22;38793;52.690;6.812;2023-10-13T09:25:31;18.70;99.90
52919;DHT22;38793;52.690;6.812;2023-10-13T09:28:11;18.80;99.90
52919;DHT22;38793;52.690;6.812;2023-10-13T09:30:47;18.80;99.90
52919;DHT22;38793;52.690;6.812;2023-10-13T09:33:13;18.90;99.90
52919;DHT22;38793;52.690;6.812;2023-10-13T09:35:44;18.90;99.90
52919;DHT22;38793;52.690;6.812;2023-10-13T09:38:16;18.90;99.90
52919;DHT22;38793;52.690;6.812;2023-10-13T09:40:43;18.90;99.90
52919;DHT22;38793;52.690;6.812;2023-10-13T09:43:32;18.90;99.90
52919;DHT22;38793;52.690;6.812;2023-10-13T09:46:01;18.90;99.90
52919;DHT22;38793;52.690;6.812;2023-10-13T09:48:38;18.90;99.90
52919;DHT22;38793;52.690;6.812;2023-10-13T09:51:18;18.90;99.90
52919;DHT22;38793;52.690;6.812;2023-10-13T09:54:03;18.90;99.90
52919;DHT22;38793;52.690;6.812;2023-10-13T09:56:44;18.90;99.90
52919;DHT22;38793;52.690;6.812;2023-10-13T09:59:30;18.90;99.90
52919;DHT22;38793;52.690;6.812;2023-10-13T10:02:01;18.90;99.90
52919;DHT22;38793;52.690;6.812;2023-10-13T10:04:38;18.90;99.90
52919;DHT22;38793;52.690;6.812;2023-10-13T10:07:27;19.00;99.90
52919;DHT22;38793;52.690;6.812;2023-10-13T10:10:00;19.00;99.90
52919;DHT22;38793;52.690;6.812;2023-10-13T10:12:47;19.10;99.90
52919;DHT22;38793;52.690;6.812;2023-10-13T10:15:22;19.10;99.90
52919;DHT22;38793;52.690;6.812;2023-10-13T10:18:22;19.10;99.90
52919;DHT22;38793;52.690;6.812;2023-10-13T10:20:51;19.10;99.90
52919;DHT22;38793;52.690;6.812;2023-10-13T10:23:28;19.10;99.90
52919;DHT22;38793;52.690;6.812;2023-10-13T10:26:16;19.10;99.90
52919;DHT22;38793;52.690;6.812;2023-10-13T10:28:47;19.10;99.90
52919;DHT22;38793;52.690;6.812;2023-10-13T10:31:13;19.10;99.90
52919;DHT22;38793;52.690;6.812;2023-10-13T10:33:42;19.20;99.90
52919;DHT22;38793;52.690;6.812;2023-10-13T10:36:08;19.20;99.90
52919;DHT22;38793;52.690;6.812;2023-10-13T10:38:54;19.20;99.90
52919;DHT22;38793;52.690;6.812;2023-10-13T10:41:28;19.20;99.90
52919;DHT22;38793;52.690;6.812;2023-10-13T10:44:13;19.20;99.90
52919;DHT22;38793;52.690;6.812;2023-10-13T10:46:47;19.30;99.90
52919;DHT22;38793;52.690;6.812;2023-10-13T10:49:26;19.30;99.90
52919;DHT22;38793;52.690;6.812;2023-10-13T10:51:59;19.30;99.90
52919;DHT22;38793;52.690;6.812;2023-10-13T10:54:30;19.40;99.90
52919;DHT22;38793;52.690;6.812;2023-10-13T10:56:58;19.50;99.90
52919;DHT22;38793;52.690;6.812;2023-10-13T10:59:39;19.50;99.90
52919;DHT22;38793;52.690;6.812;2023-10-13T11:02:06;19.50;99.90
52919;DHT22;38793;52.690;6.812;2023-10-13T11:04:33;19.50;99.90
52919;DHT22;38793;52.690;6.812;2023-10-13T11:07:07;19.60;99.90
52919;DHT22;38793;52.690;6.812;2023-10-13T11:09:35;19.60;99.90
52919;DHT22;38793;52.690;6.812;2023-10-13T11:12:12;19.70;99.90
52919;DHT22;38793;52.690;6.812;2023-10-13T11:14:43;19.70;99.90
52919;DHT22;38793;52.690;6.812;2023-10-13T11:17:19;19.80;99.90
52919;DHT22;38793;52.690;6.812;2023-10-13T11:19:50;19.70;99.90
52919;DHT22;38793;52.690;6.812;2023-10-13T11:22:21;19.80;99.90
52919;DHT22;38793;52.690;6.812;2023-10-13T11:25:06;19.80;99.90
52919;DHT22;38793;52.690;6.812;2023-10-13T11:27:35;19.80;99.90
52919;DHT22;38793;52.690;6.812;2023-10-13T11:30:18;19.90;99.90
52919;DHT22;38793;52.690;6.812;2023-10-13T11:33:17;19.90;99.90
52919;DHT22;38793;52.690;6.812;2023-10-13T11:35:44;19.90;99.90
52919;DHT22;38793;52.690;6.812;2023-10-13T11:40:57;20.00;99.90
52919;DHT22;38793;52.690;6.812;2023-10-13T11:43:35;20.10;99.90
52919;DHT22;38793;52.690;6.812;2023-10-13T11:46:23;20.10;99.90
52919;DHT22;38793;52.690;6.812;2023-10-13T11:49:02;20.20;99.90
52919;DHT22;38793;52.690;6.812;2023-10-13T11:51:48;20.20;99.90
52919;DHT22;38793;52.690;6.812;2023-10-13T11:54:22;20.30;99.90
52919;DHT22;38793;52.690;6.812;2023-10-13T11:56:49;20.40;99.90
52919;DHT22;38793;52.690;6.812;2023-10-13T11:59:15;20.40;99.90
52919;DHT22;38793;52.690;6.812;2023-10-13T12:01:44;20.50;99.90
52919;DHT22;38793;52.690;6.812;2023-10-13T12:04:29;20.50;99.90
52919;DHT22;38793;52.690;6.812;2023-10-13T12:07:00;20.50;99.90
52919;DHT22;38793;52.690;6.812;2023-10-13T12:09:47;20.40;99.90
52919;DHT22;38793;52.690;6.812;2023-10-13T12:12:28;20.40;99.90
52919;DHT22;38793;52.690;6.812;2023-10-13T12:14:54;20.40;99.90
52919;DHT22;38793;52.690;6.812;2023-10-13T12:17:30;20.40;99.90
52919;DHT22;38793;52.690;6.812;2023-10-13T12:20:03;20.40;99.90
52919;DHT22;38793;52.690;6.812;2023-10-13T12:22:31;20.40;99.90
52919;DHT22;38793;52.690;6.812;2023-10-13T12:25:11;20.40;99.90
52919;DHT22;38793;52.690;6.812;2023-10-13T12:27:55;20.50;99.90
52919;DHT22;38793;52.690;6.812;2023-10-13T12:30:41;20.50;99.90
52919;DHT22;38793;52.690;6.812;2023-10-13T12:33:22;20.50;99.90
52919;DHT22;38793;52.690;6.812;2023-10-13T12:36:00;20.60;99.90
52919;DHT22;38793;52.690;6.812;2023-10-13T12:38:33;20.60;99.90
52919;DHT22;38793;52.690;6.812;2023-10-13T12:41:05;20.60;99.90
52919;DHT22;38793;52.690;6.812;2023-10-13T12:43:49;20.60;99.90
52919;DHT22;38793;52.690;6.812;2023-10-13T12:46:33;20.70;99.90
52919;DHT22;38793;52.690;6.812;2023-10-13T12:49:18;20.60;99.90
52919;DHT22;38793;52.690;6.812;2023-10-13T12:52:02;20.70;99.90
52919;DHT22;38793;52.690;6.812;2023-10-13T12:54:28;20.70;99.90
52919;DHT22;38793;52.690;6.812;2023-10-13T12:57:01;20.70;99.90
52919;DHT22;38793;52.690;6.812;2023-10-13T12:59:28;20.70;99.90
52919;DHT22;38793;52.690;6.812;2023-10-13T13:01:53;20.70;99.90
52919;DHT22;38793;52.690;6.812;2023-10-13T13:04:19;20.80;99.90
52919;DHT22;38793;52.690;6.812;2023-10-13T13:06:51;20.70;99.90
52919;DHT22;38793;52.690;6.812;2023-10-13T13:09:16;20.70;99.90
52919;DHT22;38793;52.690;6.812;2023-10-13T13:11:54;20.70;99.90
52919;DHT22;38793;52.690;6.812;2023-10-13T13:14:24;20.70;99.90
52919;DHT22;38793;52.690;6.812;2023-10-13T13:16:56;20.70;99.90
52919;DHT22;38793;52.690;6.812;2023-10-13T13:19:34;20.80;99.90
52919;DHT22;38793;52.690;6.812;2023-10-13T13:22:05;20.80;99.90
52919;DHT22;38793;52.690;6.812;2023-10-13T13:24:35;20.80;99.90
52919;DHT22;38793;52.690;6.812;2023-10-13T13:27:00;20.80;99.90
52919;DHT22;38793;52.690;6.812;2023-10-13T13:29:29;20.80;99.90
52919;DHT22;38793;52.690;6.812;2023-10-13T13:31:55;20.80;99.90
52919;DHT22;38793;52.690;6.812;2023-10-13T13:34:20;20.80;99.90
52919;DHT22;38793;52.690;6.812;2023-10-13T13:36:47;20.80;99.90
52919;DHT22;38793;52.690;6.812;2023-10-13T13:39:19;20.80;99.90
52919;DHT22;38793;52.690;6.812;2023-10-13T13:41:54;20.80;99.90
52919;DHT22;38793;52.690;6.812;2023-10-13T13:44:23;20.80;99.90
52919;DHT22;38793;52.690;6.812;2023-10-13T13:46:55;20.80;99.90
52919;DHT22;38793;52.690;6.812;2023-10-13T13:49:22;20.90;99.90
52919;DHT22;38793;52.690;6.812;2023-10-13T13:51:55;20.90;99.90
52919;DHT22;38793;52.690;6.812;2023-10-13T13:54:21;20.80;99.90
52919;DHT22;38793;52.690;6.812;2023-10-13T13:56:47;20.80;99.90
52919;DHT22;38793;52.690;6.812;2023-10-13T13:59:13;20.70;99.90
52919;DHT22;38793;52.690;6.812;2023-10-13T14:01:45;20.60;99.90
52919;DHT22;38793;52.690;6.812;2023-10-13T14:04:11;20.60;99.90
52919;DHT22;38793;52.690;6.812;2023-10-13T14:06:37;20.50;99.90
52919;DHT22;38793;52.690;6.812;2023-10-13T14:09:04;20.50;99.90
52919;DHT22;38793;52.690;6.812;2023-10-13T14:11:39;20.40;99.90
52919;DHT22;38793;52.690;6.812;2023-10-13T14:14:12;20.40;99.90
52919;DHT22;38793;52.690;6.812;2023-10-13T14:16:39;20.40;99.90
52919;DHT22;38793;52.690;6.812;2023-10-13T14:19:11;20.30;99.90
52919;DHT22;38793;52.690;6.812;2023-10-13T14:21:37;20.20;99.90
52919;DHT22;38793;52.690;6.812;2023-10-13T14:24:02;20.20;99.90
52919;DHT22;38793;52.690;6.812;2023-10-13T14:26:38;20.10;99.90
52919;DHT22;38793;52.690;6.812;2023-10-13T14:29:03;20.00;99.90
52919;DHT22;38793;52.690;6.812;2023-10-13T14:31:34;20.00;99.90
52919;DHT22;38793;52.690;6.812;2023-10-13T14:34:02;20.00;99.90
52919;DHT22;38793;52.690;6.812;2023-10-13T14:36:28;19.90;99.90
52919;DHT22;38793;52.690;6.812;2023-10-13T14:38:55;19.90;99.90
52919;DHT22;38793;52.690;6.812;2023-10-13T14:41:21;19.80;99.90
52919;DHT22;38793;52.690;6.812;2023-10-13T14:43:47;19.70;99.90
52919;DHT22;38793;52.690;6.812;2023-10-13T14:46:16;19.70;99.90
52919;DHT22;38793;52.690;6.812;2023-10-13T14:48:45;19.50;99.90
52919;DHT22;38793;52.690;6.812;2023-10-13T14:51:14;19.50;99.90
52919;DHT22;38793;52.690;6.812;2023-10-13T14:53:43;19.40;99.90
52919;DHT22;38793;52.690;6.812;2023-10-13T14:56:15;19.30;99.90
52919;DHT22;38793;52.690;6.812;2023-10-13T14:58:42;19.30;99.90
52919;DHT22;38793;52.690;6.812;2023-10-13T15:01:12;19.20;99.90
52919;DHT22;38793;52.690;6.812;2023-10-13T15:03:45;19.20;99.90
52919;DHT22;38793;52.690;6.812;2023-10-13T15:06:31;19.10;99.90
52919;DHT22;38793;52.690;6.812;2023-10-13T15:08:58;19.00;99.90
52919;DHT22;38793;52.690;6.812;2023-10-13T15:11:25;19.00;99.90
52919;DHT22;38793;52.690;6.812;2023-10-13T15:14:11;18.90;99.90
52919;DHT22;38793;52.690;6.812;2023-10-13T15:16:38;18.90;99.90
52919;DHT22;38793;52.690;6.812;2023-10-13T15:19:04;18.80;99.90
52919;DHT22;38793;52.690;6.812;2023-10-13T15:21:32;18.80;99.90
52919;DHT22;38793;52.690;6.812;2023-10-13T15:24:01;18.80;99.90
52919;DHT22;38793;52.690;6.812;2023-10-13T15:26:39;18.70;99.90
52919;DHT22;38793;52.690;6.812;2023-10-13T15:29:07;18.70;99.90
52919;DHT22;38793;52.690;6.812;2023-10-13T15:31:38;18.70;99.90
52919;DHT22;38793;52.690;6.812;2023-10-13T15:34:11;18.60;99.90
52919;DHT22;38793;52.690;6.812;2023-10-13T15:36:43;18.60;99.90
52919;DHT22;38793;52.690;6.812;2023-10-13T15:39:12;18.60;99.90
52919;DHT22;38793;52.690;6.812;2023-10-13T15:41:41;18.60;99.90
52919;DHT22;38793;52.690;6.812;2023-10-13T15:44:13;18.50;99.90
52919;DHT22;38793;52.690;6.812;2023-10-13T15:46:39;18.50;99.90
52919;DHT22;38793;52.690;6.812;2023-10-13T15:49:05;18.50;99.90
52919;DHT22;38793;52.690;6.812;2023-10-13T15:51:34;18.50;99.90
52919;DHT22;38793;52.690;6.812;2023-10-13T15:54:02;18.40;99.90
52919;DHT22;38793;52.690;6.812;2023-10-13T15:56:29;18.40;99.90
52919;DHT22;38793;52.690;6.812;2023-10-13T15:58:59;18.40;99.90
52919;DHT22;38793;52.690;6.812;2023-10-13T16:01:27;18.40;99.90
52919;DHT22;38793;52.690;6.812;2023-10-13T16:03:53;18.40;99.90
52919;DHT22;38793;52.690;6.812;2023-10-13T16:06:19;18.40;99.90
52919;DHT22;38793;52.690;6.812;2023-10-13T16:08:45;18.40;99.90
52919;DHT22;38793;52.690;6.812;2023-10-13T16:11:14;18.40;99.90
52919;DHT22;38793;52.690;6.812;2023-10-13T16:13:47;18.30;99.90
52919;DHT22;38793;52.690;6.812;2023-10-13T16:18:45;18.30;99.90
52919;DHT22;38793;52.690;6.812;2023-10-13T16:21:12;18.20;99.90
52919;DHT22;38793;52.690;6.812;2023-10-13T16:23:40;18.20;99.90
52919;DHT22;38793;52.690;6.812;2023-10-13T16:26:06;18.20;99.90
52919;DHT22;38793;52.690;6.812;2023-10-13T16:28:36;18.20;99.90